createdAt,value
2018-10-19T00:00:14.580Z,98.50
2018-10-19T00:05:19.607Z,99.00
2018-10-19T00:10:24.278Z,98.80
2018-10-19T00:15:28.400Z,98.60
2018-10-19T00:20:32.508Z,98.70
2018-10-19T00:25:36.853Z,99.80
2018-10-19T00:30:41.653Z,99.90
2018-10-19T00:35:46.559Z,99.90
2018-10-19T00:40:50.747Z,99.90
2018-10-19T00:45:54.866Z,99.90
2018-10-19T00:50:59.007Z,99.90
2018-10-19T00:56:03.844Z,99.90
2018-10-19T01:01:08.616Z,99.90
2018-10-19T01:06:13.011Z,99.90
2018-10-19T01:11:17.508Z,99.90
2018-10-19T01:16:21.993Z,99.90
2018-10-19T01:21:26.538Z,99.90
2018-10-19T01:26:30.772Z,99.90
2018-10-19T01:31:35.836Z,99.90
2018-10-19T01:36:42.920Z,99.90
2018-10-19T01:41:47.229Z,99.90
2018-10-19T01:46:51.563Z,99.90
2018-10-19T01:51:55.998Z,99.90
2018-10-19T01:57:00.463Z,99.90
2018-10-19T02:02:05.418Z,99.90
2018-10-19T02:07:09.837Z,99.90
2018-10-19T02:12:14.042Z,99.90
2018-10-19T02:17:18.290Z,99.90
2018-10-19T02:22:22.955Z,99.90
2018-10-19T02:27:27.428Z,99.90
2018-10-19T02:32:31.743Z,99.90
2018-10-19T02:37:36.159Z,99.90
2018-10-19T02:42:40.685Z,99.90
2018-10-19T02:47:45.536Z,99.90
2018-10-19T02:52:50.048Z,99.90
2018-10-19T02:57:54.951Z,99.90
2018-10-19T03:03:00.344Z,99.90
2018-10-19T03:08:04.560Z,99.90
2018-10-19T03:13:08.828Z,99.90
2018-10-19T03:18:13.036Z,99.90
2018-10-19T03:23:18.012Z,99.90
2018-10-19T03:28:22.389Z,99.90
2018-10-19T03:33:26.640Z,99.90
2018-10-19T03:38:30.795Z,99.90
2018-10-19T03:43:36.067Z,99.90
2018-10-19T03:48:41.663Z,99.90
2018-10-19T03:53:45.867Z,99.90
2018-10-19T03:58:50.221Z,99.90
2018-10-19T04:03:54.324Z,99.90
2018-10-19T04:08:59.096Z,99.90
2018-10-19T04:14:03.824Z,99.90
2018-10-19T04:19:08.914Z,99.90
2018-10-19T04:24:13.032Z,99.90
2018-10-19T04:29:17.856Z,99.90
2018-10-19T04:34:22.433Z,99.90
2018-10-19T04:39:26.769Z,99.90
2018-10-19T04:44:31.030Z,99.90
2018-10-19T04:49:35.111Z,99.90
2018-10-19T04:54:39.748Z,99.90
2018-10-19T04:59:44.435Z,99.90
2018-10-19T05:04:49.063Z,99.90
2018-10-19T05:09:53.104Z,99.90
2018-10-19T05:14:57.241Z,99.90
2018-10-19T05:20:01.434Z,99.90
2018-10-19T05:25:07.796Z,99.90
2018-10-19T05:30:13.070Z,99.90
2018-10-19T05:35:17.531Z,99.90
2018-10-19T05:40:21.671Z,99.90
2018-10-19T05:45:26.798Z,99.90
2018-10-19T05:50:30.873Z,99.90
2018-10-19T05:55:35.205Z,99.90
2018-10-19T06:00:39.726Z,99.90
2018-10-19T06:05:44.589Z,99.90
2018-10-19T06:10:49.183Z,99.90
2018-10-19T06:15:53.278Z,99.90
2018-10-19T06:20:57.428Z,99.90
2018-10-19T06:26:02.120Z,99.90
2018-10-19T06:31:06.644Z,99.90
2018-10-19T06:36:10.935Z,99.90
2018-10-19T06:41:15.338Z,99.90
2018-10-19T06:46:19.417Z,99.90
2018-10-19T06:51:23.508Z,99.90
2018-10-19T06:56:28.324Z,99.90
2018-10-19T07:01:32.832Z,99.90
2018-10-19T07:06:37.207Z,99.90
2018-10-19T07:11:41.465Z,99.90
2018-10-19T07:16:45.531Z,99.90
2018-10-19T07:21:49.705Z,99.90
2018-10-19T07:26:53.916Z,99.90
2018-10-19T07:31:58.225Z,99.90
2018-10-19T07:37:02.430Z,99.90
2018-10-19T07:42:06.656Z,99.90
2018-10-19T07:47:11.277Z,99.10
2018-10-19T07:52:15.742Z,99.60
2018-10-19T07:57:20.192Z,99.10
2018-10-19T08:02:24.531Z,98.30
2018-10-19T08:07:28.747Z,99.10
2018-10-19T08:12:32.843Z,99.40
2018-10-19T08:17:37.250Z,98.40
2018-10-19T08:22:42.217Z,98.10
2018-10-19T08:27:46.733Z,97.60
2018-10-19T08:32:51.106Z,97.20
2018-10-19T08:37:56.243Z,97.60
2018-10-19T08:43:00.916Z,98.10
2018-10-19T08:48:05.274Z,99.00
2018-10-19T08:53:09.930Z,98.50
2018-10-19T08:58:14.060Z,98.40
2018-10-19T09:03:18.110Z,97.30
2018-10-19T09:08:22.226Z,97.00
2018-10-19T09:13:26.661Z,96.80
2018-10-19T09:18:31.011Z,96.50
2018-10-19T09:23:35.464Z,95.10
2018-10-19T09:28:39.758Z,95.30
2018-10-19T09:33:44.452Z,94.80
2018-10-19T09:38:48.838Z,94.60
2018-10-19T09:43:53.233Z,94.50
2018-10-19T09:48:57.826Z,94.40
2018-10-19T09:54:02.341Z,93.70
2018-10-19T09:59:06.696Z,92.00
2018-10-19T10:04:11.306Z,91.30
2018-10-19T10:09:17.013Z,90.70
2018-10-19T10:14:21.120Z,90.20
2018-10-19T10:19:25.491Z,88.80
2018-10-19T10:24:30.163Z,85.20
2018-10-19T10:29:34.708Z,84.50
2018-10-19T10:34:38.906Z,85.00
2018-10-19T10:39:43.030Z,87.70
2018-10-19T10:44:47.328Z,88.40
2018-10-19T10:49:51.770Z,89.50
2018-10-19T10:54:56.033Z,88.50
2018-10-19T11:00:00.820Z,90.00
2018-10-19T11:05:05.506Z,87.80
2018-10-19T11:10:10.245Z,87.50
2018-10-19T11:15:14.690Z,85.80
2018-10-19T11:20:19.359Z,81.60
2018-10-19T11:25:23.545Z,80.10
2018-10-19T11:30:27.707Z,78.60
2018-10-19T11:35:32.309Z,77.60
2018-10-19T11:40:37.526Z,79.80
2018-10-19T11:45:41.633Z,78.20
2018-10-19T11:50:45.842Z,78.10
2018-10-19T11:55:50.384Z,77.30
2018-10-19T12:00:55.121Z,76.10
2018-10-19T12:05:59.482Z,75.50
2018-10-19T12:11:03.646Z,75.70
2018-10-19T12:16:08.257Z,77.20
2018-10-19T12:21:12.740Z,77.40
2018-10-19T12:26:16.946Z,75.40
2018-10-19T12:31:21.346Z,74.40
2018-10-19T12:36:26.494Z,73.80
2018-10-19T12:41:30.624Z,71.90
2018-10-19T12:46:47.814Z,72.80
2018-10-19T12:51:53.091Z,74.10
2018-10-19T12:56:57.217Z,74.90
2018-10-19T13:02:02.871Z,76.90
2018-10-19T13:07:08.981Z,77.30
2018-10-19T13:12:13.273Z,76.20
2018-10-19T13:17:18.793Z,75.30
2018-10-19T13:22:23.658Z,74.40
2018-10-19T13:27:27.791Z,75.50
2018-10-19T13:32:32.557Z,76.20
2018-10-19T13:37:37.521Z,74.70
2018-10-19T13:42:41.970Z,72.40
2018-10-19T13:47:46.416Z,72.60
2018-10-19T13:52:50.717Z,72.00
2018-10-19T13:57:55.909Z,71.90
2018-10-19T14:03:00.412Z,72.90
2018-10-19T14:08:04.884Z,72.40
2018-10-19T14:13:13.332Z,71.70
2018-10-19T14:18:17.417Z,70.50
2018-10-19T14:23:21.675Z,72.00
2018-10-19T14:28:26.491Z,72.20
2018-10-19T14:33:31.138Z,73.10
2018-10-19T14:38:35.816Z,73.40
2018-10-19T14:43:40.376Z,73.20
2018-10-19T14:48:44.583Z,73.70
2018-10-19T14:53:49.030Z,74.70
2018-10-19T14:58:54.255Z,75.30
2018-10-19T15:03:58.531Z,75.70
2018-10-19T15:09:03.651Z,76.30
2018-10-19T15:14:07.906Z,77.00
2018-10-19T15:19:13.260Z,77.20
2018-10-19T15:24:18.385Z,74.90
2018-10-19T15:29:23.021Z,74.10
2018-10-19T15:34:27.945Z,76.70
2018-10-19T15:39:36.926Z,79.30
2018-10-19T15:44:42.799Z,81.30
2018-10-19T15:49:47.551Z,83.20
2018-10-19T15:54:53.175Z,84.30
2018-10-19T15:59:58.853Z,85.10
2018-10-19T16:05:04.853Z,86.70
2018-10-19T16:10:10.018Z,87.90
2018-10-19T16:15:14.312Z,88.80
2018-10-19T16:20:21.028Z,90.00
2018-10-19T16:25:25.275Z,90.80
2018-10-19T16:30:29.529Z,92.10
2018-10-19T16:35:41.226Z,92.90
2018-10-19T16:40:47.122Z,93.10
2018-10-19T16:45:51.530Z,93.20
2018-10-19T16:50:56.365Z,93.50
2018-10-19T16:56:02.889Z,94.30
2018-10-19T17:01:07.084Z,94.10
2018-10-19T17:06:12.350Z,94.90
2018-10-19T17:11:16.832Z,94.10
2018-10-19T17:16:21.073Z,94.10
2018-10-19T17:21:25.154Z,93.90
2018-10-19T17:26:30.570Z,94.00
2018-10-19T17:31:34.816Z,93.90
2018-10-19T17:36:39.269Z,94.00
2018-10-19T17:41:43.709Z,94.20
2018-10-19T17:46:47.990Z,94.50
2018-10-19T17:51:52.097Z,94.60
2018-10-19T17:56:58.737Z,94.70
2018-10-19T18:02:02.995Z,95.20
2018-10-19T18:07:07.809Z,95.80
2018-10-19T18:12:12.124Z,95.70
2018-10-19T18:17:17.332Z,96.00
2018-10-19T18:22:24.109Z,96.20
2018-10-19T18:27:28.692Z,96.00
2018-10-19T18:32:33.267Z,96.30
2018-10-19T18:37:38.541Z,96.70
2018-10-19T18:42:43.012Z,96.40
2018-10-19T18:47:48.716Z,96.30
2018-10-19T18:52:52.938Z,96.90
2018-10-19T18:57:57.014Z,97.70
2018-10-19T19:03:01.499Z,98.30
2018-10-19T19:08:07.324Z,98.60
2018-10-19T19:13:16.984Z,98.70
2018-10-19T19:18:24.056Z,98.60
2018-10-19T19:23:28.551Z,98.40
2018-10-19T19:28:32.764Z,98.70
2018-10-19T19:33:42.311Z,99.90
2018-10-19T19:38:46.480Z,99.70
2018-10-19T19:43:51.107Z,99.90
2018-10-19T19:49:02.075Z,99.90
2018-10-19T19:54:06.531Z,99.90
2018-10-19T19:59:10.778Z,99.90
2018-10-19T20:04:16.051Z,99.90
2018-10-19T20:09:20.652Z,99.90
2018-10-19T20:14:25.186Z,99.90
2018-10-19T20:19:29.516Z,99.90
2018-10-19T20:24:33.783Z,99.90
2018-10-19T20:29:38.159Z,99.90
2018-10-19T20:34:42.580Z,99.90
2018-10-19T20:39:47.076Z,99.90
2018-10-19T20:44:51.289Z,99.90
2018-10-19T20:49:55.356Z,99.90
2018-10-19T20:54:59.601Z,99.90
2018-10-19T21:00:05.293Z,99.90
2018-10-19T21:05:11.231Z,99.90
2018-10-19T21:10:15.502Z,99.90
2018-10-19T21:15:20.028Z,99.90
2018-10-19T21:20:24.566Z,99.90
2018-10-19T21:25:29.327Z,99.90
2018-10-19T21:30:33.405Z,99.90
2018-10-19T21:35:37.629Z,99.90
2018-10-19T21:40:42.086Z,99.90
2018-10-19T21:45:46.247Z,99.90
2018-10-19T21:50:50.537Z,99.90
2018-10-19T21:55:54.624Z,99.90
2018-10-19T22:00:58.867Z,99.90
2018-10-19T22:06:03.988Z,99.90
2018-10-19T22:11:08.608Z,99.90
2018-10-19T22:16:12.922Z,99.90
2018-10-19T22:21:17.116Z,99.90
2018-10-19T22:26:21.229Z,99.90
2018-10-19T22:31:26.707Z,99.90
2018-10-19T22:36:31.561Z,99.90
2018-10-19T22:41:35.658Z,99.90
2018-10-19T22:46:40.383Z,99.90
2018-10-19T22:51:44.894Z,99.90
2018-10-19T22:56:49.161Z,99.90
2018-10-19T23:01:53.796Z,99.90
2018-10-19T23:06:57.915Z,99.90
2018-10-19T23:12:02.084Z,99.90
2018-10-19T23:17:06.279Z,99.90
2018-10-19T23:22:11.208Z,99.90
2018-10-19T23:27:15.534Z,99.90
2018-10-19T23:32:20.187Z,99.90
2018-10-19T23:37:24.445Z,99.90
2018-10-19T23:42:28.589Z,99.90
2018-10-19T23:47:33.559Z,99.90
2018-10-19T23:52:38.401Z,99.90
2018-10-19T23:57:42.540Z,99.90
